sensor_id;sensor_type;location;lat;lon;timestamp;temperature;humidity
10411;DHT22;5251;52.112;8.606;2023-06-22T00:00:54;20.70;99.90
10411;DHT22;5251;52.112;8.606;2023-06-22T00:03:21;20.70;99.90
10411;DHT22;5251;52.112;8.606;2023-06-22T00:05:48;20.70;99.90
10411;DHT22;5251;52.112;8.606;2023-06-22T00:08:14;20.60;99.90
10411;DHT22;5251;52.112;8.606;2023-06-22T00:10:40;20.60;99.90
10411;DHT22;5251;52.112;8.606;2023-06-22T00:13:07;20.60;99.90
10411;DHT22;5251;52.112;8.606;2023-06-22T00:15:33;20.60;99.90
10411;DHT22;5251;52.112;8.606;2023-06-22T00:17:59;20.60;99.90
10411;DHT22;5251;52.112;8.606;2023-06-22T00:20:25;20.60;99.90
10411;DHT22;5251;52.112;8.606;2023-06-22T00:22:56;20.60;99.90
10411;DHT22;5251;52.112;8.606;2023-06-22T00:25:22;20.60;99.90
10411;DHT22;5251;52.112;8.606;2023-06-22T00:27:48;20.60;99.90
10411;DHT22;5251;52.112;8.606;2023-06-22T00:30:15;20.60;99.90
10411;DHT22;5251;52.112;8.606;2023-06-22T00:32:40;20.60;99.90
10411;DHT22;5251;52.112;8.606;2023-06-22T00:35:06;20.60;99.90
10411;DHT22;5251;52.112;8.606;2023-06-22T00:37:32;20.60;99.90
10411;DHT22;5251;52.112;8.606;2023-06-22T00:39:58;20.60;99.90
10411;DHT22;5251;52.112;8.606;2023-06-22T00:42:24;20.60;99.90
10411;DHT22;5251;52.112;8.606;2023-06-22T00:44:50;20.60;99.90
10411;DHT22;5251;52.112;8.606;2023-06-22T00:47:17;20.60;99.90
10411;DHT22;5251;52.112;8.606;2023-06-22T00:49:43;20.60;99.90
10411;DHT22;5251;52.112;8.606;2023-06-22T00:52:10;20.60;99.90
10411;DHT22;5251;52.112;8.606;2023-06-22T00:54:42;20.70;99.90
10411;DHT22;5251;52.112;8.606;2023-06-22T00:57:12;20.70;99.90
10411;DHT22;5251;52.112;8.606;2023-06-22T00:59:42;20.70;99.90
10411;DHT22;5251;52.112;8.606;2023-06-22T01:02:08;20.70;99.90
10411;DHT22;5251;52.112;8.606;2023-06-22T01:04:35;20.70;99.90
10411;DHT22;5251;52.112;8.606;2023-06-22T01:09:38;20.70;99.90
10411;DHT22;5251;52.112;8.606;2023-06-22T01:12:07;20.70;99.90
10411;DHT22;5251;52.112;8.606;2023-06-22T01:14:42;20.70;99.90
10411;DHT22;5251;52.112;8.606;2023-06-22T01:17:10;20.70;99.90
10411;DHT22;5251;52.112;8.606;2023-06-22T01:19:44;20.80;99.90
10411;DHT22;5251;52.112;8.606;2023-06-22T01:22:14;20.80;99.90
10411;DHT22;5251;52.112;8.606;2023-06-22T01:28:03;20.80;99.90
10411;DHT22;5251;52.112;8.606;2023-06-22T01:30:30;20.70;99.90
10411;DHT22;5251;52.112;8.606;2023-06-22T01:33:01;20.70;99.90
10411;DHT22;5251;52.112;8.606;2023-06-22T01:35:28;20.70;99.90
10411;DHT22;5251;52.112;8.606;2023-06-22T01:37:55;20.70;99.90
10411;DHT22;5251;52.112;8.606;2023-06-22T01:40:21;20.70;99.90
10411;DHT22;5251;52.112;8.606;2023-06-22T01:42:48;20.70;99.90
10411;DHT22;5251;52.112;8.606;2023-06-22T01:45:14;20.60;99.90
10411;DHT22;5251;52.112;8.606;2023-06-22T01:47:41;20.70;99.90
10411;DHT22;5251;52.112;8.606;2023-06-22T01:50:07;20.70;99.90
10411;DHT22;5251;52.112;8.606;2023-06-22T01:52:34;20.70;99.90
10411;DHT22;5251;52.112;8.606;2023-06-22T01:55:00;20.60;99.90
10411;DHT22;5251;52.112;8.606;2023-06-22T01:57:27;20.60;99.90
10411;DHT22;5251;52.112;8.606;2023-06-22T02:00:09;20.60;99.90
10411;DHT22;5251;52.112;8.606;2023-06-22T02:02:43;20.60;99.90
10411;DHT22;5251;52.112;8.606;2023-06-22T02:05:10;20.60;99.90
10411;DHT22;5251;52.112;8.606;2023-06-22T02:10:32;20.60;99.90
10411;DHT22;5251;52.112;8.606;2023-06-22T02:13:01;20.60;99.90
10411;DHT22;5251;52.112;8.606;2023-06-22T02:15:26;20.60;99.90
10411;DHT22;5251;52.112;8.606;2023-06-22T02:17:52;20.60;99.90
10411;DHT22;5251;52.112;8.606;2023-06-22T02:20:18;20.60;99.90
10411;DHT22;5251;52.112;8.606;2023-06-22T02:22:44;20.60;99.90
10411;DHT22;5251;52.112;8.606;2023-06-22T02:25:09;20.60;99.90
10411;DHT22;5251;52.112;8.606;2023-06-22T02:27:35;20.60;99.90
10411;DHT22;5251;52.112;8.606;2023-06-22T02:30:00;20.60;99.90
10411;DHT22;5251;52.112;8.606;2023-06-22T02:32:26;20.60;99.90
10411;DHT22;5251;52.112;8.606;2023-06-22T02:34:52;20.60;99.90
10411;DHT22;5251;52.112;8.606;2023-06-22T02:37:18;20.60;99.90
10411;DHT22;5251;52.112;8.606;2023-06-22T02:39:44;20.60;99.90
10411;DHT22;5251;52.112;8.606;2023-06-22T02:42:10;20.60;99.90
10411;DHT22;5251;52.112;8.606;2023-06-22T02:44:38;20.60;99.90
10411;DHT22;5251;52.112;8.606;2023-06-22T02:47:04;20.50;99.90
10411;DHT22;5251;52.112;8.606;2023-06-22T02:49:30;20.50;99.90
10411;DHT22;5251;52.112;8.606;2023-06-22T02:51:57;20.60;99.90
10411;DHT22;5251;52.112;8.606;2023-06-22T02:54:23;20.50;99.90
10411;DHT22;5251;52.112;8.606;2023-06-22T02:56:48;20.50;99.90
10411;DHT22;5251;52.112;8.606;2023-06-22T02:59:16;20.50;99.90
10411;DHT22;5251;52.112;8.606;2023-06-22T03:01:41;20.50;99.90
10411;DHT22;5251;52.112;8.606;2023-06-22T03:04:07;20.50;99.90
10411;DHT22;5251;52.112;8.606;2023-06-22T03:06:33;20.50;99.90
10411;DHT22;5251;52.112;8.606;2023-06-22T03:09:01;20.50;99.90
10411;DHT22;5251;52.112;8.606;2023-06-22T03:11:29;20.50;99.90
10411;DHT22;5251;52.112;8.606;2023-06-22T03:13:55;20.50;99.90
10411;DHT22;5251;52.112;8.606;2023-06-22T03:16:20;20.50;99.90
10411;DHT22;5251;52.112;8.606;2023-06-22T03:18:46;20.50;99.90
10411;DHT22;5251;52.112;8.606;2023-06-22T03:21:12;20.50;99.90
10411;DHT22;5251;52.112;8.606;2023-06-22T03:23:37;20.40;99.90
10411;DHT22;5251;52.112;8.606;2023-06-22T03:26:03;20.40;99.90
10411;DHT22;5251;52.112;8.606;2023-06-22T03:28:29;20.40;99.90
10411;DHT22;5251;52.112;8.606;2023-06-22T03:30:57;20.40;99.90
10411;DHT22;5251;52.112;8.606;2023-06-22T03:33:23;20.40;99.90
10411;DHT22;5251;52.112;8.606;2023-06-22T03:35:48;20.40;99.90
10411;DHT22;5251;52.112;8.606;2023-06-22T03:38:16;20.40;99.90
10411;DHT22;5251;52.112;8.606;2023-06-22T03:40:41;20.40;99.90
10411;DHT22;5251;52.112;8.606;2023-06-22T03:43:07;20.40;99.90
10411;DHT22;5251;52.112;8.606;2023-06-22T03:45:33;20.40;99.90
10411;DHT22;5251;52.112;8.606;2023-06-22T03:47:58;20.40;99.90
10411;DHT22;5251;52.112;8.606;2023-06-22T03:50:24;20.40;99.90
10411;DHT22;5251;52.112;8.606;2023-06-22T03:52:49;20.40;99.90
10411;DHT22;5251;52.112;8.606;2023-06-22T03:55:16;20.50;99.90
10411;DHT22;5251;52.112;8.606;2023-06-22T03:57:42;20.50;99.90
10411;DHT22;5251;52.112;8.606;2023-06-22T04:00:08;20.50;99.90
10411;DHT22;5251;52.112;8.606;2023-06-22T04:02:35;20.60;99.90
10411;DHT22;5251;52.112;8.606;2023-06-22T04:05:00;20.60;99.90
10411;DHT22;5251;52.112;8.606;2023-06-22T04:07:26;20.60;99.90
10411;DHT22;5251;52.112;8.606;2023-06-22T04:09:52;20.60;99.90
10411;DHT22;5251;52.112;8.606;2023-06-22T04:12:17;20.70;99.90
10411;DHT22;5251;52.112;8.606;2023-06-22T04:14:43;20.80;99.90
10411;DHT22;5251;52.112;8.606;2023-06-22T04:17:08;20.70;99.90
10411;DHT22;5251;52.112;8.606;2023-06-22T04:19:34;20.80;99.90
10411;DHT22;5251;52.112;8.606;2023-06-22T04:21:59;20.90;99.90
10411;DHT22;5251;52.112;8.606;2023-06-22T04:24:25;20.90;99.90
10411;DHT22;5251;52.112;8.606;2023-06-22T04:26:51;20.90;99.90
10411;DHT22;5251;52.112;8.606;2023-06-22T04:29:20;20.90;99.90
10411;DHT22;5251;52.112;8.606;2023-06-22T04:31:45;21.00;99.90
10411;DHT22;5251;52.112;8.606;2023-06-22T04:34:16;21.10;99.90
10411;DHT22;5251;52.112;8.606;2023-06-22T04:36:42;21.10;99.90
10411;DHT22;5251;52.112;8.606;2023-06-22T04:39:11;21.20;99.90
10411;DHT22;5251;52.112;8.606;2023-06-22T04:41:38;21.20;99.90
10411;DHT22;5251;52.112;8.606;2023-06-22T04:44:19;21.20;99.90
10411;DHT22;5251;52.112;8.606;2023-06-22T04:46:55;21.30;99.90
10411;DHT22;5251;52.112;8.606;2023-06-22T04:49:26;21.40;99.90
10411;DHT22;5251;52.112;8.606;2023-06-22T04:52:00;21.40;99.90
10411;DHT22;5251;52.112;8.606;2023-06-22T04:54:26;21.50;99.90
10411;DHT22;5251;52.112;8.606;2023-06-22T04:56:51;21.60;99.90
10411;DHT22;5251;52.112;8.606;2023-06-22T04:59:24;21.70;99.90
10411;DHT22;5251;52.112;8.606;2023-06-22T05:01:58;21.80;99.90
10411;DHT22;5251;52.112;8.606;2023-06-22T05:04:24;21.80;99.90
10411;DHT22;5251;52.112;8.606;2023-06-22T05:06:51;21.90;99.90
10411;DHT22;5251;52.112;8.606;2023-06-22T05:09:17;22.00;99.90
10411;DHT22;5251;52.112;8.606;2023-06-22T05:11:43;22.10;99.90
10411;DHT22;5251;52.112;8.606;2023-06-22T05:14:09;22.20;99.90
10411;DHT22;5251;52.112;8.606;2023-06-22T05:16:35;22.40;99.90
10411;DHT22;5251;52.112;8.606;2023-06-22T05:19:00;22.50;99.90
10411;DHT22;5251;52.112;8.606;2023-06-22T05:21:29;22.80;99.90
10411;DHT22;5251;52.112;8.606;2023-06-22T05:23:56;23.00;99.90
10411;DHT22;5251;52.112;8.606;2023-06-22T05:26:28;23.20;99.90
10411;DHT22;5251;52.112;8.606;2023-06-22T05:28:54;23.30;99.90
10411;DHT22;5251;52.112;8.606;2023-06-22T05:31:20;23.50;99.90
10411;DHT22;5251;52.112;8.606;2023-06-22T05:33:47;23.60;99.90
10411;DHT22;5251;52.112;8.606;2023-06-22T05:36:13;23.70;99.90
10411;DHT22;5251;52.112;8.606;2023-06-22T05:38:40;23.80;99.90
10411;DHT22;5251;52.112;8.606;2023-06-22T05:41:06;23.80;99.90
10411;DHT22;5251;52.112;8.606;2023-06-22T05:43:31;23.90;99.90
10411;DHT22;5251;52.112;8.606;2023-06-22T05:45:57;24.00;99.90
10411;DHT22;5251;52.112;8.606;2023-06-22T05:48:23;24.00;99.90
10411;DHT22;5251;52.112;8.606;2023-06-22T05:50:49;24.10;99.90
10411;DHT22;5251;52.112;8.606;2023-06-22T05:53:15;24.20;99.90
10411;DHT22;5251;52.112;8.606;2023-06-22T05:55:40;24.30;99.90
10411;DHT22;5251;52.112;8.606;2023-06-22T05:58:08;24.40;99.80
10411;DHT22;5251;52.112;8.606;2023-06-22T06:00:33;24.40;99.70
10411;DHT22;5251;52.112;8.606;2023-06-22T06:02:59;24.50;99.20
10411;DHT22;5251;52.112;8.606;2023-06-22T06:05:29;24.60;98.50
10411;DHT22;5251;52.112;8.606;2023-06-22T06:07:55;24.70;99.10
10411;DHT22;5251;52.112;8.606;2023-06-22T06:10:21;24.80;99.20
10411;DHT22;5251;52.112;8.606;2023-06-22T06:12:46;24.90;98.30
10411;DHT22;5251;52.112;8.606;2023-06-22T06:15:12;24.90;98.60
10411;DHT22;5251;52.112;8.606;2023-06-22T06:17:51;25.10;98.90
10411;DHT22;5251;52.112;8.606;2023-06-22T06:20:23;25.20;98.80
10411;DHT22;5251;52.112;8.606;2023-06-22T06:22:49;25.30;98.20
10411;DHT22;5251;52.112;8.606;2023-06-22T06:25:15;25.50;97.90
10411;DHT22;5251;52.112;8.606;2023-06-22T06:27:45;25.50;97.60
10411;DHT22;5251;52.112;8.606;2023-06-22T06:30:12;25.60;97.50
10411;DHT22;5251;52.112;8.606;2023-06-22T06:32:39;25.70;97.00
10411;DHT22;5251;52.112;8.606;2023-06-22T06:35:09;25.80;96.60
10411;DHT22;5251;52.112;8.606;2023-06-22T06:37:43;25.90;97.10
10411;DHT22;5251;52.112;8.606;2023-06-22T06:40:10;25.90;97.20
10411;DHT22;5251;52.112;8.606;2023-06-22T06:42:37;26.00;97.40
10411;DHT22;5251;52.112;8.606;2023-06-22T06:45:06;26.10;97.20
10411;DHT22;5251;52.112;8.606;2023-06-22T06:47:32;26.20;96.60
10411;DHT22;5251;52.112;8.606;2023-06-22T06:49:57;26.30;96.40
10411;DHT22;5251;52.112;8.606;2023-06-22T06:52:23;26.40;95.90
10411;DHT22;5251;52.112;8.606;2023-06-22T06:54:48;26.60;95.90
10411;DHT22;5251;52.112;8.606;2023-06-22T06:57:14;26.70;95.40
10411;DHT22;5251;52.112;8.606;2023-06-22T06:59:41;26.80;95.70
10411;DHT22;5251;52.112;8.606;2023-06-22T07:02:07;27.00;95.10
10411;DHT22;5251;52.112;8.606;2023-06-22T07:04:33;27.10;94.20
10411;DHT22;5251;52.112;8.606;2023-06-22T07:07:00;27.30;93.90
10411;DHT22;5251;52.112;8.606;2023-06-22T07:09:26;27.40;93.50
10411;DHT22;5251;52.112;8.606;2023-06-22T07:11:52;27.60;93.40
10411;DHT22;5251;52.112;8.606;2023-06-22T07:14:17;27.60;92.70
10411;DHT22;5251;52.112;8.606;2023-06-22T07:16:43;27.80;91.40
10411;DHT22;5251;52.112;8.606;2023-06-22T07:19:11;27.90;91.70
10411;DHT22;5251;52.112;8.606;2023-06-22T07:21:37;28.00;92.30
10411;DHT22;5251;52.112;8.606;2023-06-22T07:24:05;28.10;92.00
10411;DHT22;5251;52.112;8.606;2023-06-22T07:26:31;28.10;92.40
10411;DHT22;5251;52.112;8.606;2023-06-22T07:28:57;28.20;91.90
10411;DHT22;5251;52.112;8.606;2023-06-22T07:31:24;28.20;91.30
10411;DHT22;5251;52.112;8.606;2023-06-22T07:33:50;28.30;91.90
10411;DHT22;5251;52.112;8.606;2023-06-22T07:36:17;28.30;91.10
10411;DHT22;5251;52.112;8.606;2023-06-22T07:38:43;28.30;91.20
10411;DHT22;5251;52.112;8.606;2023-06-22T07:41:09;28.30;91.10
10411;DHT22;5251;52.112;8.606;2023-06-22T07:43:35;28.30;91.20
10411;DHT22;5251;52.112;8.606;2023-06-22T07:46:03;28.30;91.20
10411;DHT22;5251;52.112;8.606;2023-06-22T07:48:29;28.30;90.80
10411;DHT22;5251;52.112;8.606;2023-06-22T07:50:55;28.30;90.20
10411;DHT22;5251;52.112;8.606;2023-06-22T07:53:21;28.30;91.00
10411;DHT22;5251;52.112;8.606;2023-06-22T07:55:47;28.20;90.40
10411;DHT22;5251;52.112;8.606;2023-06-22T07:58:13;28.30;90.20
10411;DHT22;5251;52.112;8.606;2023-06-22T08:00:39;28.20;89.10
10411;DHT22;5251;52.112;8.606;2023-06-22T08:03:04;28.20;88.70
10411;DHT22;5251;52.112;8.606;2023-06-22T08:05:31;28.10;88.80
10411;DHT22;5251;52.112;8.606;2023-06-22T08:07:57;28.10;89.50
10411;DHT22;5251;52.112;8.606;2023-06-22T08:10:22;28.10;90.10
10411;DHT22;5251;52.112;8.606;2023-06-22T08:12:48;28.10;89.50
10411;DHT22;5251;52.112;8.606;2023-06-22T08:15:14;28.10;90.90
10411;DHT22;5251;52.112;8.606;2023-06-22T08:17:40;28.10;90.90
10411;DHT22;5251;52.112;8.606;2023-06-22T08:20:06;28.10;90.50
10411;DHT22;5251;52.112;8.606;2023-06-22T08:22:36;28.10;90.40
10411;DHT22;5251;52.112;8.606;2023-06-22T08:25:03;28.20;90.80
10411;DHT22;5251;52.112;8.606;2023-06-22T08:27:30;28.20;90.70
10411;DHT22;5251;52.112;8.606;2023-06-22T08:29:57;28.20;90.50
10411;DHT22;5251;52.112;8.606;2023-06-22T08:32:24;28.30;90.10
10411;DHT22;5251;52.112;8.606;2023-06-22T08:34:52;28.40;90.00
10411;DHT22;5251;52.112;8.606;2023-06-22T08:37:18;28.40;89.50
10411;DHT22;5251;52.112;8.606;2023-06-22T08:39:44;28.50;89.70
10411;DHT22;5251;52.112;8.606;2023-06-22T08:42:09;28.50;90.00
10411;DHT22;5251;52.112;8.606;2023-06-22T08:44:35;28.60;90.10
10411;DHT22;5251;52.112;8.606;2023-06-22T08:47:00;28.60;89.70
10411;DHT22;5251;52.112;8.606;2023-06-22T08:49:27;28.70;89.60
10411;DHT22;5251;52.112;8.606;2023-06-22T08:51:53;28.70;87.50
10411;DHT22;5251;52.112;8.606;2023-06-22T08:54:21;28.80;87.90
10411;DHT22;5251;52.112;8.606;2023-06-22T08:56:46;29.00;86.80
10411;DHT22;5251;52.112;8.606;2023-06-22T08:59:12;29.10;88.90
10411;DHT22;5251;52.112;8.606;2023-06-22T09:01:38;29.30;89.00
10411;DHT22;5251;52.112;8.606;2023-06-22T09:04:03;29.40;88.10
10411;DHT22;5251;52.112;8.606;2023-06-22T09:06:31;29.50;87.20
10411;DHT22;5251;52.112;8.606;2023-06-22T09:08:57;29.60;84.70
10411;DHT22;5251;52.112;8.606;2023-06-22T09:11:25;29.70;84.70
10411;DHT22;5251;52.112;8.606;2023-06-22T09:13:50;29.90;84.40
10411;DHT22;5251;52.112;8.606;2023-06-22T09:16:17;30.00;83.80
10411;DHT22;5251;52.112;8.606;2023-06-22T09:18:46;30.00;84.10
10411;DHT22;5251;52.112;8.606;2023-06-22T09:21:12;30.10;82.90
10411;DHT22;5251;52.112;8.606;2023-06-22T09:23:37;30.10;82.10
10411;DHT22;5251;52.112;8.606;2023-06-22T09:26:03;30.10;82.70
10411;DHT22;5251;52.112;8.606;2023-06-22T09:28:29;30.10;81.40
10411;DHT22;5251;52.112;8.606;2023-06-22T09:30:55;30.00;82.70
10411;DHT22;5251;52.112;8.606;2023-06-22T09:33:23;30.00;82.20
10411;DHT22;5251;52.112;8.606;2023-06-22T09:35:49;30.00;82.70
10411;DHT22;5251;52.112;8.606;2023-06-22T09:38:16;30.00;82.60
10411;DHT22;5251;52.112;8.606;2023-06-22T09:40:42;30.00;84.50
10411;DHT22;5251;52.112;8.606;2023-06-22T09:43:07;30.10;82.50
10411;DHT22;5251;52.112;8.606;2023-06-22T09:45:33;30.20;83.00
10411;DHT22;5251;52.112;8.606;2023-06-22T09:47:59;30.40;83.70
10411;DHT22;5251;52.112;8.606;2023-06-22T09:50:24;30.60;81.80
10411;DHT22;5251;52.112;8.606;2023-06-22T09:52:50;30.80;82.60
10411;DHT22;5251;52.112;8.606;2023-06-22T09:55:20;31.00;83.60
10411;DHT22;5251;52.112;8.606;2023-06-22T09:57:46;31.20;80.30
10411;DHT22;5251;52.112;8.606;2023-06-22T10:00:12;31.30;82.40
10411;DHT22;5251;52.112;8.606;2023-06-22T10:02:39;31.50;81.30
10411;DHT22;5251;52.112;8.606;2023-06-22T10:05:05;31.60;79.20
10411;DHT22;5251;52.112;8.606;2023-06-22T10:07:33;31.80;80.90
10411;DHT22;5251;52.112;8.606;2023-06-22T10:09:58;31.90;79.20
10411;DHT22;5251;52.112;8.606;2023-06-22T10:12:25;32.10;77.10
10411;DHT22;5251;52.112;8.606;2023-06-22T10:14:50;32.20;75.80
10411;DHT22;5251;52.112;8.606;2023-06-22T10:17:16;32.20;75.30
10411;DHT22;5251;52.112;8.606;2023-06-22T10:19:41;32.20;75.30
10411;DHT22;5251;52.112;8.606;2023-06-22T10:22:07;32.20;74.70
10411;DHT22;5251;52.112;8.606;2023-06-22T10:24:33;32.10;77.30
10411;DHT22;5251;52.112;8.606;2023-06-22T10:26:58;32.10;77.20
10411;DHT22;5251;52.112;8.606;2023-06-22T10:29:24;32.10;77.20
10411;DHT22;5251;52.112;8.606;2023-06-22T10:31:50;32.20;74.80
10411;DHT22;5251;52.112;8.606;2023-06-22T10:34:15;32.10;75.10
10411;DHT22;5251;52.112;8.606;2023-06-22T10:36:41;32.10;75.40
10411;DHT22;5251;52.112;8.606;2023-06-22T10:39:06;32.10;76.00
10411;DHT22;5251;52.112;8.606;2023-06-22T10:41:32;32.00;76.00
10411;DHT22;5251;52.112;8.606;2023-06-22T10:43:58;32.00;76.40
10411;DHT22;5251;52.112;8.606;2023-06-22T10:46:26;32.00;77.30
10411;DHT22;5251;52.112;8.606;2023-06-22T10:48:53;32.10;78.10
10411;DHT22;5251;52.112;8.606;2023-06-22T10:51:20;32.10;77.20
10411;DHT22;5251;52.112;8.606;2023-06-22T10:53:46;32.20;77.30
10411;DHT22;5251;52.112;8.606;2023-06-22T10:56:11;32.30;73.90
10411;DHT22;5251;52.112;8.606;2023-06-22T10:58:37;32.30;74.40
10411;DHT22;5251;52.112;8.606;2023-06-22T11:01:02;32.40;75.80
10411;DHT22;5251;52.112;8.606;2023-06-22T11:03:28;32.50;74.10
10411;DHT22;5251;52.112;8.606;2023-06-22T11:05:54;32.60;76.70
10411;DHT22;5251;52.112;8.606;2023-06-22T11:08:19;32.70;72.70
10411;DHT22;5251;52.112;8.606;2023-06-22T11:10:45;32.80;74.70
10411;DHT22;5251;52.112;8.606;2023-06-22T11:13:11;32.80;72.50
10411;DHT22;5251;52.112;8.606;2023-06-22T11:15:36;32.80;72.80
10411;DHT22;5251;52.112;8.606;2023-06-22T11:18:02;32.60;70.80
10411;DHT22;5251;52.112;8.606;2023-06-22T11:20:30;32.50;70.70
10411;DHT22;5251;52.112;8.606;2023-06-22T11:22:56;32.30;72.90
10411;DHT22;5251;52.112;8.606;2023-06-22T11:25:21;32.20;72.30
10411;DHT22;5251;52.112;8.606;2023-06-22T11:27:47;32.00;75.80
10411;DHT22;5251;52.112;8.606;2023-06-22T11:30:13;32.00;74.00
10411;DHT22;5251;52.112;8.606;2023-06-22T11:32:39;31.80;73.40
10411;DHT22;5251;52.112;8.606;2023-06-22T11:35:04;31.80;75.30
10411;DHT22;5251;52.112;8.606;2023-06-22T11:37:30;31.70;74.00
10411;DHT22;5251;52.112;8.606;2023-06-22T11:39:56;31.70;72.70
10411;DHT22;5251;52.112;8.606;2023-06-22T11:42:22;31.70;74.80
10411;DHT22;5251;52.112;8.606;2023-06-22T11:44:49;31.70;73.70
10411;DHT22;5251;52.112;8.606;2023-06-22T11:47:15;31.80;74.60
10411;DHT22;5251;52.112;8.606;2023-06-22T11:49:41;31.80;74.70
10411;DHT22;5251;52.112;8.606;2023-06-22T11:52:07;31.80;74.50
10411;DHT22;5251;52.112;8.606;2023-06-22T11:54:32;31.90;74.80
10411;DHT22;5251;52.112;8.606;2023-06-22T11:56:58;32.00;75.20
10411;DHT22;5251;52.112;8.606;2023-06-22T11:59:24;32.00;73.00
10411;DHT22;5251;52.112;8.606;2023-06-22T12:01:50;32.10;72.30
10411;DHT22;5251;52.112;8.606;2023-06-22T12:04:16;32.10;71.60
10411;DHT22;5251;52.112;8.606;2023-06-22T12:06:42;32.10;71.80
10411;DHT22;5251;52.112;8.606;2023-06-22T12:09:09;32.00;72.90
10411;DHT22;5251;52.112;8.606;2023-06-22T12:11:35;32.00;72.90
10411;DHT22;5251;52.112;8.606;2023-06-22T12:14:00;32.00;72.70
10411;DHT22;5251;52.112;8.606;2023-06-22T12:16:30;31.90;72.10
10411;DHT22;5251;52.112;8.606;2023-06-22T12:18:56;31.80;71.00
10411;DHT22;5251;52.112;8.606;2023-06-22T12:21:21;31.80;71.60
10411;DHT22;5251;52.112;8.606;2023-06-22T12:23:47;31.80;71.50
10411;DHT22;5251;52.112;8.606;2023-06-22T12:26:13;31.70;71.90
10411;DHT22;5251;52.112;8.606;2023-06-22T12:28:38;31.70;71.20
10411;DHT22;5251;52.112;8.606;2023-06-22T12:31:04;31.70;70.70
10411;DHT22;5251;52.112;8.606;2023-06-22T12:33:29;31.70;71.50
10411;DHT22;5251;52.112;8.606;2023-06-22T12:35:56;31.60;72.90
10411;DHT22;5251;52.112;8.606;2023-06-22T12:38:21;31.60;72.30
10411;DHT22;5251;52.112;8.606;2023-06-22T12:40:47;31.60;72.30
10411;DHT22;5251;52.112;8.606;2023-06-22T12:43:14;31.60;74.80
10411;DHT22;5251;52.112;8.606;2023-06-22T12:45:40;31.50;80.60
10411;DHT22;5251;52.112;8.606;2023-06-22T12:48:06;31.50;78.70
10411;DHT22;5251;52.112;8.606;2023-06-22T12:50:32;31.30;82.00
10411;DHT22;5251;52.112;8.606;2023-06-22T12:52:57;31.10;85.40
10411;DHT22;5251;52.112;8.606;2023-06-22T12:55:23;30.80;80.90
10411;DHT22;5251;52.112;8.606;2023-06-22T12:57:49;30.50;81.80
10411;DHT22;5251;52.112;8.606;2023-06-22T13:00:14;30.20;84.50
10411;DHT22;5251;52.112;8.606;2023-06-22T13:02:40;29.90;86.60
10411;DHT22;5251;52.112;8.606;2023-06-22T13:05:06;29.70;87.30
10411;DHT22;5251;52.112;8.606;2023-06-22T13:07:32;29.40;86.40
10411;DHT22;5251;52.112;8.606;2023-06-22T13:09:57;29.10;88.70
10411;DHT22;5251;52.112;8.606;2023-06-22T13:12:23;28.90;89.70
10411;DHT22;5251;52.112;8.606;2023-06-22T13:14:49;28.80;90.00
10411;DHT22;5251;52.112;8.606;2023-06-22T13:17:15;28.60;90.20
10411;DHT22;5251;52.112;8.606;2023-06-22T13:19:41;28.40;90.70
10411;DHT22;5251;52.112;8.606;2023-06-22T13:24:51;28.20;91.90
10411;DHT22;5251;52.112;8.606;2023-06-22T13:27:17;28.00;93.20
10411;DHT22;5251;52.112;8.606;2023-06-22T13:29:49;27.80;94.50
10411;DHT22;5251;52.112;8.606;2023-06-22T13:32:14;27.60;95.40
10411;DHT22;5251;52.112;8.606;2023-06-22T13:34:40;27.40;96.80
10411;DHT22;5251;52.112;8.606;2023-06-22T13:37:05;27.10;97.20
10411;DHT22;5251;52.112;8.606;2023-06-22T13:39:31;26.90;98.60
10411;DHT22;5251;52.112;8.606;2023-06-22T13:41:57;26.80;99.90
10411;DHT22;5251;52.112;8.606;2023-06-22T13:44:23;26.70;99.90
10411;DHT22;5251;52.112;8.606;2023-06-22T13:46:53;26.60;99.90
10411;DHT22;5251;52.112;8.606;2023-06-22T13:49:18;26.50;99.90
10411;DHT22;5251;52.112;8.606;2023-06-22T13:51:44;26.50;99.90
10411;DHT22;5251;52.112;8.606;2023-06-22T13:54:09;26.40;99.90
10411;DHT22;5251;52.112;8.606;2023-06-22T13:56:35;26.30;99.90
10411;DHT22;5251;52.112;8.606;2023-06-22T13:59:01;26.20;99.90
10411;DHT22;5251;52.112;8.606;2023-06-22T14:01:26;26.20;99.90
10411;DHT22;5251;52.112;8.606;2023-06-22T14:03:52;26.10;99.90
10411;DHT22;5251;52.112;8.606;2023-06-22T14:06:18;26.00;99.90
10411;DHT22;5251;52.112;8.606;2023-06-22T14:08:43;26.00;99.90
10411;DHT22;5251;52.112;8.606;2023-06-22T14:11:10;26.00;99.90
10411;DHT22;5251;52.112;8.606;2023-06-22T14:13:35;25.90;99.90
10411;DHT22;5251;52.112;8.606;2023-06-22T14:16:02;25.90;99.90
10411;DHT22;5251;52.112;8.606;2023-06-22T14:18:27;25.80;99.90
10411;DHT22;5251;52.112;8.606;2023-06-22T14:20:54;25.70;99.90
10411;DHT22;5251;52.112;8.606;2023-06-22T14:23:19;25.70;99.90
10411;DHT22;5251;52.112;8.606;2023-06-22T14:25:45;25.60;99.90
10411;DHT22;5251;52.112;8.606;2023-06-22T14:28:11;25.40;99.90
10411;DHT22;5251;52.112;8.606;2023-06-22T14:30:36;25.30;99.90
10411;DHT22;5251;52.112;8.606;2023-06-22T14:33:02;25.10;99.90
10411;DHT22;5251;52.112;8.606;2023-06-22T14:35:27;24.90;99.90
10411;DHT22;5251;52.112;8.606;2023-06-22T14:37:53;24.80;99.90
10411;DHT22;5251;52.112;8.606;2023-06-22T14:40:19;24.60;99.90
10411;DHT22;5251;52.112;8.606;2023-06-22T14:42:44;24.40;99.90
10411;DHT22;5251;52.112;8.606;2023-06-22T14:45:10;24.20;99.90
10411;DHT22;5251;52.112;8.606;2023-06-22T14:47:35;24.10;99.90
10411;DHT22;5251;52.112;8.606;2023-06-22T14:50:01;24.00;99.90
10411;DHT22;5251;52.112;8.606;2023-06-22T14:52:27;23.80;99.90
10411;DHT22;5251;52.112;8.606;2023-06-22T14:54:53;23.70;99.90
10411;DHT22;5251;52.112;8.606;2023-06-22T14:57:18;23.60;99.90
10411;DHT22;5251;52.112;8.606;2023-06-22T14:59:46;23.40;99.90
10411;DHT22;5251;52.112;8.606;2023-06-22T15:02:12;23.30;99.90
10411;DHT22;5251;52.112;8.606;2023-06-22T15:04:38;23.20;99.90
10411;DHT22;5251;52.112;8.606;2023-06-22T15:07:04;23.10;99.90
10411;DHT22;5251;52.112;8.606;2023-06-22T15:09:29;23.00;99.90
10411;DHT22;5251;52.112;8.606;2023-06-22T15:11:55;23.00;99.90
10411;DHT22;5251;52.112;8.606;2023-06-22T15:14:20;22.90;99.90
10411;DHT22;5251;52.112;8.606;2023-06-22T15:16:46;22.90;99.90
10411;DHT22;5251;52.112;8.606;2023-06-22T15:19:12;22.80;99.90
10411;DHT22;5251;52.112;8.606;2023-06-22T15:21:38;22.80;99.90
10411;DHT22;5251;52.112;8.606;2023-06-22T15:24:04;22.90;99.90
10411;DHT22;5251;52.112;8.606;2023-06-22T15:26:29;22.90;99.90
10411;DHT22;5251;52.112;8.606;2023-06-22T15:28:55;22.90;99.90
10411;DHT22;5251;52.112;8.606;2023-06-22T15:31:21;23.00;99.90
10411;DHT22;5251;52.112;8.606;2023-06-22T15:33:48;23.10;99.90
10411;DHT22;5251;52.112;8.606;2023-06-22T15:36:13;23.10;99.90
10411;DHT22;5251;52.112;8.606;2023-06-22T15:38:39;23.20;99.90
10411;DHT22;5251;52.112;8.606;2023-06-22T15:41:04;23.30;99.90
10411;DHT22;5251;52.112;8.606;2023-06-22T15:43:30;23.30;99.90
10411;DHT22;5251;52.112;8.606;2023-06-22T15:45:55;23.40;99.90
10411;DHT22;5251;52.112;8.606;2023-06-22T15:48:21;23.40;99.90
10411;DHT22;5251;52.112;8.606;2023-06-22T15:50:47;23.40;99.90